createdAt,value
2023-05-06T05:23:25.174Z,16.77
2023-05-06T05:25:53.230Z,16.89
2023-05-06T05:28:20.693Z,16.94
2023-05-06T05:30:48.214Z,16.90
2023-05-06T05:33:15.849Z,16.99
2023-05-06T05:35:43.425Z,17.80
2023-05-06T05:38:13.121Z,17.33
2023-05-06T05:40:40.842Z,17.53
2023-05-06T05:46:04.888Z,17.29
2023-05-06T05:48:32.905Z,17.36
2023-05-06T05:55:16.345Z,17.28
2023-05-06T06:03:00.227Z,17.32
2023-05-06T06:05:27.959Z,17.34
2023-05-06T06:07:55.527Z,17.52
2023-05-06T06:10:23.034Z,17.60
2023-05-06T06:12:50.537Z,17.70
2023-05-06T06:15:18.102Z,17.82
2023-05-06T06:17:45.714Z,17.88
2023-05-06T06:20:14.274Z,18.01
2023-05-06T06:22:41.868Z,17.88
2023-05-06T06:25:10.378Z,17.98
2023-05-06T06:27:38.530Z,17.85
2023-05-06T06:30:07.782Z,18.13
2023-05-06T06:32:35.488Z,18.17
2023-05-06T06:35:03.044Z,18.49
2023-05-06T06:37:30.580Z,18.58
2023-05-06T06:39:58.059Z,18.54
2023-05-06T06:42:26.203Z,18.37
2023-05-06T06:44:56.723Z,18.55
2023-05-06T06:47:24.258Z,18.57
2023-05-06T06:49:51.721Z,18.64
2023-05-06T06:52:19.194Z,18.73
2023-05-06T06:54:46.807Z,18.75
2023-05-06T06:57:14.239Z,18.70
2023-05-06T06:59:41.728Z,18.83
2023-05-06T07:02:09.140Z,18.83
2023-05-06T07:04:36.773Z,18.99
2023-05-06T07:07:04.290Z,19.11
2023-05-06T07:09:32.502Z,19.12
2023-05-06T07:12:01.923Z,19.09
2023-05-06T07:14:29.470Z,19.30
2023-05-06T07:16:57.070Z,19.23
2023-05-06T07:19:24.579Z,19.21
2023-05-06T07:21:52.009Z,19.32
2023-05-06T07:24:19.505Z,19.20
2023-05-06T07:26:47.937Z,19.27
2023-05-06T07:29:16.213Z,19.43
2023-05-06T07:31:44.630Z,19.45
2023-05-06T07:34:12.098Z,19.52
2023-05-06T07:36:43.624Z,19.63
2023-05-06T07:39:12.642Z,19.53
2023-05-06T07:41:40.523Z,19.71
2023-05-06T07:44:08.128Z,19.58
2023-05-06T07:46:36.091Z,19.80
2023-05-06T07:49:03.948Z,19.81
2023-05-06T07:51:32.050Z,19.86
2023-05-06T07:53:59.718Z,19.88
2023-05-06T07:56:27.260Z,19.97
2023-05-06T07:58:54.871Z,20.12
2023-05-06T08:01:22.675Z,20.06
2023-05-06T08:03:50.230Z,20.26
2023-05-06T08:06:17.828Z,20.32
2023-05-06T08:08:46.682Z,20.29
2023-05-06T08:11:14.506Z,20.12
2023-05-06T08:13:42.205Z,20.31
2023-05-06T08:16:10.099Z,20.51
2023-05-06T08:18:37.541Z,20.54
2023-05-06T08:21:05.849Z,20.49
2023-05-06T08:23:33.369Z,20.59
2023-05-06T08:26:02.035Z,20.63
2023-05-06T08:28:29.659Z,20.55
2023-05-06T08:30:57.185Z,20.65
2023-05-06T08:33:24.667Z,20.81
2023-05-06T08:36:02.393Z,20.89
2023-05-06T08:38:30.251Z,20.86
2023-05-06T08:41:07.871Z,20.79
2023-05-06T08:43:46.224Z,21.00
2023-05-06T08:46:15.305Z,20.94
2023-05-06T08:48:43.347Z,20.78
2023-05-06T08:51:18.101Z,21.07
2023-05-06T08:53:49.523Z,21.30
2023-05-06T08:56:18.077Z,21.32
2023-05-06T08:58:47.676Z,21.38
2023-05-06T09:01:16.102Z,21.41
2023-05-06T09:03:44.306Z,21.41
2023-05-06T09:06:11.874Z,21.08
2023-05-06T09:08:39.473Z,21.57
2023-05-06T09:11:30.088Z,21.49
2023-05-06T09:14:26.960Z,21.54
2023-05-06T09:16:54.677Z,21.49
2023-05-06T09:19:23.683Z,21.72
2023-05-06T09:21:52.154Z,21.67
2023-05-06T09:24:20.318Z,21.71
2023-05-06T09:26:48.306Z,21.49
2023-05-06T09:29:15.774Z,21.60
2023-05-06T09:31:46.590Z,21.78
2023-05-06T09:34:17.510Z,21.91
2023-05-06T09:36:45.485Z,22.11
2023-05-06T09:39:12.977Z,21.99
2023-05-06T09:41:40.468Z,22.25
2023-05-06T09:44:07.965Z,21.87
2023-05-06T09:46:36.243Z,21.86
2023-05-06T09:49:03.958Z,22.15
2023-05-06T09:51:31.364Z,22.09
2023-05-06T09:53:59.287Z,22.18
2023-05-06T09:56:27.030Z,22.23
2023-05-06T09:58:56.026Z,22.31
2023-05-06T10:01:36.004Z,22.45
2023-05-06T10:04:11.095Z,22.58
2023-05-06T10:06:41.427Z,22.33
2023-05-06T10:09:10.613Z,22.25
2023-05-06T10:11:38.751Z,22.54
2023-05-06T10:14:06.899Z,22.61
2023-05-06T10:16:36.666Z,22.77
2023-05-06T10:19:06.672Z,22.80
2023-05-06T10:21:42.862Z,22.61
2023-05-06T10:24:13.583Z,23.06
2023-05-06T10:26:42.539Z,23.15
2023-05-06T10:29:11.476Z,22.88
2023-05-06T10:31:57.266Z,23.36
2023-05-06T10:34:28.812Z,23.31
2023-05-06T10:36:58.689Z,23.35
2023-05-06T10:39:27.244Z,23.23
2023-05-06T10:41:54.796Z,23.39
2023-05-06T10:45:05.258Z,23.46
2023-05-06T10:47:57.511Z,23.67
2023-05-06T10:50:27.255Z,23.86
2023-05-06T10:52:59.327Z,23.79
2023-05-06T10:55:38.032Z,24.04
2023-05-06T10:58:11.557Z,23.96
2023-05-06T11:00:39.285Z,24.06
2023-05-06T11:03:14.158Z,24.38
2023-05-06T11:05:51.756Z,24.05
2023-05-06T11:08:26.822Z,24.29
2023-05-06T11:10:55.019Z,24.16
2023-05-06T11:13:30.104Z,24.48
2023-05-06T11:15:58.813Z,24.80
2023-05-06T11:18:29.570Z,24.64
2023-05-06T11:21:03.723Z,25.08
2023-05-06T11:23:52.409Z,24.57
2023-05-06T11:26:20.546Z,24.80
2023-05-06T11:28:51.303Z,24.91
2023-05-06T11:31:19.276Z,25.29
2023-05-06T11:33:52.778Z,25.04
2023-05-06T11:36:21.919Z,25.23
2023-05-06T11:38:53.385Z,25.08
2023-05-06T11:41:23.555Z,25.41
2023-05-06T11:43:53.619Z,25.40
2023-05-06T11:46:24.020Z,25.76
2023-05-06T11:48:51.871Z,25.65
2023-05-06T11:51:26.690Z,25.97
2023-05-06T11:54:10.454Z,25.97
2023-05-06T11:56:54.018Z,26.40
2023-05-06T11:59:34.496Z,26.55
2023-05-06T12:02:12.783Z,26.06
2023-05-06T12:04:50.256Z,26.59
2023-05-06T12:07:18.108Z,26.51
2023-05-06T12:09:51.137Z,26.82
2023-05-06T12:12:23.988Z,26.46
2023-05-06T12:14:54.105Z,26.51
2023-05-06T12:17:21.965Z,27.09
2023-05-06T12:19:50.172Z,26.71
2023-05-06T12:22:27.575Z,27.08
2023-05-06T12:24:55.146Z,27.08
2023-05-06T12:27:35.746Z,27.43
2023-05-06T12:30:04.915Z,27.37
2023-05-06T12:32:33.154Z,27.20
2023-05-06T12:35:05.924Z,27.07
2023-05-06T12:37:33.618Z,26.89
2023-05-06T12:40:01.397Z,27.33
2023-05-06T12:42:29.153Z,27.33
2023-05-06T12:44:56.617Z,27.54
2023-05-06T12:47:26.436Z,27.47
2023-05-06T12:49:59.371Z,27.58
2023-05-06T12:52:30.760Z,28.09
2023-05-06T12:55:00.871Z,27.82
2023-05-06T12:57:28.339Z,27.97
2023-05-06T12:59:56.487Z,28.13
2023-05-06T13:02:24.536Z,28.56
2023-05-06T13:04:52.108Z,28.63
2023-05-06T13:07:19.567Z,28.40
2023-05-06T13:09:47.044Z,28.31
2023-05-06T13:12:14.480Z,28.04
2023-05-06T13:14:41.943Z,28.02
2023-05-06T13:17:09.785Z,28.62
2023-05-06T13:19:37.555Z,28.83
2023-05-06T13:22:05.121Z,29.01
2023-05-06T13:24:32.615Z,28.71
2023-05-06T13:27:01.411Z,28.61
2023-05-06T13:29:29.942Z,28.28
2023-05-06T13:31:57.847Z,28.33
2023-05-06T13:34:26.092Z,27.88
2023-05-06T13:36:57.379Z,28.17
2023-05-06T13:39:25.668Z,28.08
2023-05-06T13:41:54.221Z,28.27
2023-05-06T13:44:22.194Z,27.95
2023-05-06T13:46:49.792Z,27.97
2023-05-06T13:49:18.723Z,28.16
2023-05-06T13:51:46.290Z,28.60
2023-05-06T13:54:13.944Z,28.23
2023-05-06T13:56:41.466Z,28.40
2023-05-06T13:59:10.386Z,28.55
2023-05-06T14:01:38.970Z,28.30
2023-05-06T14:04:06.558Z,28.48
2023-05-06T14:06:34.168Z,28.87
2023-05-06T14:09:02.107Z,28.39
2023-05-06T14:11:29.562Z,28.84
2023-05-06T14:13:57.527Z,28.55
2023-05-06T14:16:25.031Z,27.74
2023-05-06T14:18:52.680Z,27.92
2023-05-06T14:21:20.158Z,28.68
2023-05-06T14:23:47.660Z,28.79
2023-05-06T14:26:15.175Z,28.44
2023-05-06T14:28:42.595Z,27.95
2023-05-06T14:31:10.312Z,28.09
2023-05-06T14:33:38.998Z,28.52
2023-05-06T14:36:07.065Z,28.23
2023-05-06T14:38:34.556Z,27.88
2023-05-06T14:41:02.109Z,28.51
2023-05-06T14:43:29.588Z,28.80
2023-05-06T14:45:57.128Z,28.60
2023-05-06T14:48:25.562Z,28.82
2023-05-06T14:50:53.215Z,28.89
2023-05-06T14:53:20.724Z,29.10
2023-05-06T14:55:49.053Z,28.53
2023-05-06T14:58:16.726Z,28.45
2023-05-06T15:00:45.096Z,28.02
2023-05-06T15:03:12.544Z,28.51
2023-05-06T15:05:40.029Z,28.80
2023-05-06T15:08:07.590Z,28.72
2023-05-06T15:10:35.166Z,27.88
2023-05-06T15:13:02.763Z,28.30
2023-05-06T15:15:30.631Z,29.14
2023-05-06T15:17:58.139Z,29.07
2023-05-06T15:20:26.278Z,28.73
2023-05-06T15:22:53.762Z,28.59
2023-05-06T15:25:34.208Z,29.17
2023-05-06T15:28:03.031Z,28.78
2023-05-06T15:30:30.586Z,28.51
2023-05-06T15:32:58.198Z,28.37
2023-05-06T15:35:25.877Z,28.43
2023-05-06T15:37:59.294Z,28.43
2023-05-06T15:40:27.353Z,28.00
2023-05-06T15:42:55.274Z,28.21
2023-05-06T15:45:22.975Z,28.30
2023-05-06T15:47:50.533Z,28.42
2023-05-06T15:50:32.464Z,28.53
2023-05-06T15:53:02.332Z,28.43
2023-05-06T15:55:35.244Z,28.12
2023-05-06T15:58:11.193Z,28.01
2023-05-06T16:00:38.563Z,28.04
2023-05-06T16:03:08.045Z,28.31
2023-05-06T16:05:37.491Z,28.14
2023-05-06T16:08:05.113Z,27.48
2023-05-06T16:10:32.681Z,27.81
2023-05-06T16:13:00.275Z,27.74
2023-05-06T16:15:27.808Z,27.61
2023-05-06T16:17:56.697Z,27.24
2023-05-06T16:20:24.316Z,27.70
2023-05-06T16:22:52.786Z,27.46
2023-05-06T16:25:20.608Z,27.67
2023-05-06T16:27:48.823Z,27.74
2023-05-06T16:30:16.797Z,27.52
2023-05-06T16:32:44.753Z,27.46
2023-05-06T16:35:12.968Z,27.26
2023-05-06T16:37:40.559Z,27.18
2023-05-06T16:40:09.842Z,27.29
2023-05-06T16:42:37.433Z,27.27
2023-05-06T16:45:07.809Z,27.35
2023-05-06T16:47:35.543Z,26.94
2023-05-06T16:50:04.029Z,26.97
2023-05-06T16:52:31.446Z,27.21
2023-05-06T16:54:59.212Z,26.80
2023-05-06T16:57:26.787Z,27.15
2023-05-06T16:59:54.424Z,26.87
2023-05-06T17:02:21.912Z,27.20
2023-05-06T17:04:49.461Z,26.97
2023-05-06T17:07:17.053Z,26.76
2023-05-06T17:09:44.532Z,26.87
2023-05-06T17:12:12.030Z,26.71
2023-05-06T17:14:41.543Z,26.94
2023-05-06T17:17:09.076Z,26.90
2023-05-06T17:19:36.528Z,26.67
2023-05-06T17:22:04.251Z,26.83
2023-05-06T17:24:31.690Z,26.44
2023-05-06T17:26:59.695Z,26.43
2023-05-06T17:29:27.443Z,26.53
2023-05-06T17:31:54.912Z,26.51
2023-05-06T17:37:09.946Z,26.20
2023-05-06T17:39:38.515Z,26.31
2023-05-06T17:42:05.993Z,26.00
2023-05-06T17:44:35.356Z,26.10
2023-05-06T17:47:02.970Z,26.03
2023-05-06T17:49:31.041Z,26.21
2023-05-06T17:51:59.565Z,26.12
2023-05-06T17:54:34.818Z,25.63
2023-05-06T17:57:03.788Z,25.86
2023-05-06T17:59:31.283Z,25.91
2023-05-06T18:01:58.970Z,25.71
2023-05-06T18:04:26.605Z,25.70
2023-05-06T18:06:54.126Z,25.50
2023-05-06T18:09:21.597Z,25.51
2023-05-06T18:11:49.087Z,25.37
2023-05-06T18:14:16.597Z,25.17
2023-05-06T18:16:44.130Z,25.28
2023-05-06T18:19:11.930Z,25.19
2023-05-06T18:21:39.636Z,25.15
2023-05-06T18:24:16.178Z,25.12
2023-05-06T18:26:45.776Z,24.94
2023-05-06T18:29:13.760Z,24.97
2023-05-06T18:31:41.409Z,24.96
2023-05-06T18:34:08.958Z,24.95
2023-05-06T18:36:36.622Z,24.67
2023-05-06T18:39:04.851Z,24.76
2023-05-06T18:41:32.341Z,24.69
2023-05-06T18:43:59.814Z,24.56
2023-05-06T18:46:27.668Z,24.68
2023-05-06T18:48:56.078Z,24.61
2023-05-06T18:51:23.760Z,24.69
2023-05-06T18:53:51.307Z,24.51
2023-05-06T18:56:18.994Z,24.56
2023-05-06T18:58:46.518Z,24.44
2023-05-06T19:01:13.955Z,24.22
2023-05-06T19:03:41.899Z,24.31
2023-05-06T19:06:12.644Z,24.25
2023-05-06T19:08:40.835Z,24.05
2023-05-06T19:11:16.925Z,24.15
2023-05-06T19:13:46.387Z,23.97
2023-05-06T19:16:14.192Z,23.95
2023-05-06T19:18:41.834Z,23.92
2023-05-06T19:21:13.010Z,23.87
2023-05-06T19:23:40.893Z,23.73
2023-05-06T19:26:12.142Z,23.82
2023-05-06T19:28:42.780Z,23.65
2023-05-06T19:31:11.774Z,23.54
2023-05-06T19:33:41.018Z,23.51
2023-05-06T19:36:09.338Z,23.72
2023-05-06T19:38:38.097Z,23.57
2023-05-06T19:41:06.233Z,23.42
2023-05-06T19:43:33.715Z,23.50
2023-05-06T19:46:01.233Z,23.36
2023-05-06T19:48:28.807Z,23.42
2023-05-06T19:50:56.561Z,23.33
2023-05-06T19:53:24.189Z,23.36
2023-05-06T19:55:56.053Z,23.26
2023-05-06T19:58:23.506Z,23.26
2023-05-06T20:00:50.900Z,23.19
2023-05-06T20:03:18.596Z,23.08
2023-05-06T20:05:46.178Z,23.33
2023-05-06T20:08:13.878Z,23.30
2023-05-06T20:10:41.390Z,22.94
2023-05-06T20:13:08.929Z,22.95
2023-05-06T20:15:36.602Z,22.99
2023-05-06T20:18:04.260Z,22.87
2023-05-06T20:20:34.691Z,22.99
2023-05-06T20:23:03.364Z,22.69
2023-05-06T20:25:31.250Z,22.86
2023-05-06T20:27:59.781Z,22.82
2023-05-06T20:30:27.389Z,22.86
2023-05-06T20:32:54.907Z,22.83
2023-05-06T20:35:22.499Z,22.91
2023-05-06T20:37:50.387Z,22.85
2023-05-06T20:40:17.982Z,22.60
2023-05-06T20:42:45.468Z,22.51
2023-05-06T20:45:13.313Z,22.41
2023-05-06T20:47:40.931Z,22.43
2023-05-06T20:50:09.404Z,22.26
2023-05-06T20:52:37.398Z,22.17
2023-05-06T20:55:07.253Z,22.20
2023-05-06T20:57:34.714Z,21.94
2023-05-06T21:00:02.749Z,22.06
2023-05-06T21:02:32.998Z,21.94
2023-05-06T21:05:01.851Z,21.82
2023-05-06T21:07:29.499Z,21.85
2023-05-06T21:09:56.966Z,21.87
2023-05-06T21:12:24.465Z,21.72
2023-05-06T21:14:51.973Z,21.75
2023-05-06T21:17:19.446Z,21.86
2023-05-06T21:19:52.537Z,21.64
2023-05-06T21:22:24.367Z,21.73
2023-05-06T21:24:52.191Z,21.57
2023-05-06T21:27:19.677Z,21.56
2023-05-06T21:29:47.144Z,21.32
2023-05-06T21:32:14.832Z,21.57
2023-05-06T21:34:42.359Z,21.39
2023-05-06T21:37:09.824Z,21.31
2023-05-06T21:39:37.355Z,21.33
2023-05-06T21:42:04.972Z,21.33
2023-05-06T21:44:32.439Z,21.42
2023-05-06T21:46:59.883Z,21.28
2023-05-06T21:49:27.356Z,21.26
2023-05-06T21:51:54.776Z,21.32
2023-05-06T21:54:24.259Z,21.33
2023-05-06T21:56:51.792Z,20.99
2023-05-06T21:59:19.893Z,20.89
2023-05-06T22:01:48.253Z,20.80
2023-05-06T22:04:16.926Z,20.99
2023-05-06T22:06:44.481Z,21.12
2023-05-06T22:09:12.057Z,21.08
2023-05-06T22:11:39.506Z,20.80
2023-05-06T22:14:07.105Z,20.79
2023-05-06T22:16:38.095Z,20.72
2023-05-06T22:19:06.701Z,20.78
2023-05-06T22:21:35.355Z,20.83
2023-05-06T22:24:03.019Z,20.93
2023-05-06T22:26:30.547Z,20.71
2023-05-06T22:28:58.064Z,20.87
2023-05-06T22:31:26.583Z,20.77
2023-05-06T22:33:58.024Z,20.86
2023-05-06T22:36:29.648Z,20.76
2023-05-06T22:38:57.186Z,20.87
2023-05-06T22:41:24.699Z,20.75
2023-05-06T22:43:52.398Z,20.69
2023-05-06T22:46:19.989Z,20.62
2023-05-06T22:48:47.425Z,20.65
2023-05-06T22:51:16.125Z,20.53
2023-05-06T22:53:43.675Z,20.65
2023-05-06T22:56:11.359Z,20.46
2023-05-06T22:58:38.912Z,20.42
2023-05-06T23:01:07.503Z,20.66
2023-05-06T23:03:36.114Z,20.51
2023-05-06T23:06:06.192Z,20.50
2023-05-06T23:08:33.832Z,20.55
2023-05-06T23:11:01.337Z,20.29
2023-05-06T23:13:28.917Z,20.20
2023-05-06T23:15:56.464Z,20.47
2023-05-06T23:18:23.988Z,20.36
2023-05-06T23:20:51.527Z,20.51
2023-05-06T23:23:19.045Z,20.37
2023-05-06T23:25:46.443Z,20.19
2023-05-06T23:28:13.901Z,20.12
2023-05-06T23:30:41.424Z,20.09
2023-05-06T23:33:09.018Z,20.17
2023-05-06T23:35:36.612Z,20.17
2023-05-06T23:38:04.081Z,19.93
2023-05-06T23:40:31.576Z,20.00
2023-05-06T23:42:59.082Z,20.01
2023-05-06T23:45:27.061Z,19.87
2023-05-06T23:47:54.948Z,19.87
2023-05-06T23:50:22.396Z,19.76
2023-05-06T23:52:49.954Z,19.84
2023-05-06T23:55:17.519Z,19.85
2023-05-06T23:57:45.953Z,19.85
